sensor_id;sensor_type;location;lat;lon;timestamp;P1;durP1;ratioP1;P2;durP2;ratioP2
18661;SDS011;61528;49.456;11.098;2024-03-02T00:00:01;32.83;;;21.60;;
18661;SDS011;61528;49.456;11.098;2024-03-02T00:02:40;35.57;;;21.63;;
18661;SDS011;61528;49.456;11.098;2024-03-02T00:05:07;34.93;;;21.93;;
18661;SDS011;61528;49.456;11.098;2024-03-02T00:07:33;34.27;;;22.33;;
18661;SDS011;61528;49.456;11.098;2024-03-02T00:09:59;35.13;;;21.13;;
18661;SDS011;61528;49.456;11.098;2024-03-02T00:12:26;35.90;;;22.20;;
18661;SDS011;61528;49.456;11.098;2024-03-02T00:14:52;34.03;;;20.70;;
18661;SDS011;61528;49.456;11.098;2024-03-02T00:17:21;34.97;;;20.80;;
18661;SDS011;61528;49.456;11.098;2024-03-02T00:19:53;32.80;;;22.07;;
18661;SDS011;61528;49.456;11.098;2024-03-02T00:22:19;31.80;;;20.97;;
18661;SDS011;61528;49.456;11.098;2024-03-02T00:24:45;32.40;;;21.17;;
18661;SDS011;61528;49.456;11.098;2024-03-02T00:27:12;33.87;;;22.03;;
18661;SDS011;61528;49.456;11.098;2024-03-02T00:29:40;35.23;;;21.83;;
18661;SDS011;61528;49.456;11.098;2024-03-02T00:32:13;33.40;;;21.03;;
18661;SDS011;61528;49.456;11.098;2024-03-02T00:34:40;32.47;;;22.13;;
18661;SDS011;61528;49.456;11.098;2024-03-02T00:37:06;35.10;;;21.97;;
18661;SDS011;61528;49.456;11.098;2024-03-02T00:39:33;34.43;;;21.73;;
18661;SDS011;61528;49.456;11.098;2024-03-02T00:41:59;32.33;;;21.47;;
18661;SDS011;61528;49.456;11.098;2024-03-02T00:44:26;32.20;;;20.63;;
18661;SDS011;61528;49.456;11.098;2024-03-02T00:46:54;33.80;;;21.13;;
18661;SDS011;61528;49.456;11.098;2024-03-02T00:49:22;34.30;;;20.70;;
18661;SDS011;61528;49.456;11.098;2024-03-02T00:51:49;32.70;;;21.27;;
18661;SDS011;61528;49.456;11.098;2024-03-02T00:54:15;30.27;;;20.40;;
18661;SDS011;61528;49.456;11.098;2024-03-02T00:56:45;36.03;;;22.13;;
18661;SDS011;61528;49.456;11.098;2024-03-02T00:59:13;34.93;;;22.57;;
18661;SDS011;61528;49.456;11.098;2024-03-02T01:01:39;36.33;;;21.77;;
18661;SDS011;61528;49.456;11.098;2024-03-02T01:04:05;34.77;;;22.53;;
18661;SDS011;61528;49.456;11.098;2024-03-02T01:06:31;34.80;;;22.33;;
18661;SDS011;61528;49.456;11.098;2024-03-02T01:08:57;33.60;;;22.40;;
18661;SDS011;61528;49.456;11.098;2024-03-02T01:11:23;38.00;;;23.27;;
18661;SDS011;61528;49.456;11.098;2024-03-02T01:13:50;33.70;;;21.83;;
18661;SDS011;61528;49.456;11.098;2024-03-02T01:16:17;34.27;;;22.80;;
18661;SDS011;61528;49.456;11.098;2024-03-02T01:18:43;34.73;;;22.40;;
18661;SDS011;61528;49.456;11.098;2024-03-02T01:21:09;32.73;;;21.30;;
18661;SDS011;61528;49.456;11.098;2024-03-02T01:23:36;34.83;;;22.53;;
18661;SDS011;61528;49.456;11.098;2024-03-02T01:26:02;32.40;;;21.97;;
18661;SDS011;61528;49.456;11.098;2024-03-02T01:28:28;34.40;;;23.07;;
18661;SDS011;61528;49.456;11.098;2024-03-02T01:30:55;34.27;;;22.83;;
18661;SDS011;61528;49.456;11.098;2024-03-02T01:33:21;34.43;;;22.40;;
18661;SDS011;61528;49.456;11.098;2024-03-02T01:35:47;36.77;;;23.03;;
18661;SDS011;61528;49.456;11.098;2024-03-02T01:38:13;34.80;;;22.30;;
18661;SDS011;61528;49.456;11.098;2024-03-02T01:40:39;34.70;;;21.83;;
18661;SDS011;61528;49.456;11.098;2024-03-02T01:43:06;35.90;;;22.13;;
18661;SDS011;61528;49.456;11.098;2024-03-02T01:45:33;32.93;;;21.70;;
18661;SDS011;61528;49.456;11.098;2024-03-02T01:48:00;35.93;;;22.73;;
18661;SDS011;61528;49.456;11.098;2024-03-02T01:50:36;33.57;;;20.77;;
18661;SDS011;61528;49.456;11.098;2024-03-02T01:53:02;35.33;;;21.03;;
18661;SDS011;61528;49.456;11.098;2024-03-02T01:55:29;36.60;;;23.43;;
18661;SDS011;61528;49.456;11.098;2024-03-02T01:57:55;34.60;;;21.60;;
18661;SDS011;61528;49.456;11.098;2024-03-02T02:00:21;36.70;;;22.67;;
18661;SDS011;61528;49.456;11.098;2024-03-02T02:02:51;36.40;;;22.17;;
18661;SDS011;61528;49.456;11.098;2024-03-02T02:05:18;34.60;;;22.20;;
18661;SDS011;61528;49.456;11.098;2024-03-02T02:07:44;32.87;;;21.20;;
18661;SDS011;61528;49.456;11.098;2024-03-02T02:12:57;35.77;;;22.07;;
18661;SDS011;61528;49.456;11.098;2024-03-02T02:18:10;33.83;;;21.40;;
18661;SDS011;61528;49.456;11.098;2024-03-02T02:20:36;36.90;;;23.03;;
18661;SDS011;61528;49.456;11.098;2024-03-02T02:25:48;34.47;;;21.90;;
18661;SDS011;61528;49.456;11.098;2024-03-02T02:28:15;33.93;;;22.13;;
18661;SDS011;61528;49.456;11.098;2024-03-02T02:30:41;36.43;;;22.30;;
18661;SDS011;61528;49.456;11.098;2024-03-02T02:33:07;35.93;;;22.93;;
18661;SDS011;61528;49.456;11.098;2024-03-02T02:35:34;38.00;;;22.63;;
18661;SDS011;61528;49.456;11.098;2024-03-02T02:38:01;34.13;;;21.47;;
18661;SDS011;61528;49.456;11.098;2024-03-02T02:40:28;36.00;;;21.83;;
18661;SDS011;61528;49.456;11.098;2024-03-02T02:45:42;35.23;;;21.53;;
18661;SDS011;61528;49.456;11.098;2024-03-02T02:48:09;34.60;;;21.67;;
18661;SDS011;61528;49.456;11.098;2024-03-02T02:50:36;32.97;;;21.93;;
18661;SDS011;61528;49.456;11.098;2024-03-02T02:53:02;37.63;;;23.47;;
18661;SDS011;61528;49.456;11.098;2024-03-02T02:55:28;35.73;;;22.33;;
18661;SDS011;61528;49.456;11.098;2024-03-02T02:57:54;35.37;;;22.67;;
18661;SDS011;61528;49.456;11.098;2024-03-02T03:00:21;33.00;;;21.70;;
18661;SDS011;61528;49.456;11.098;2024-03-02T03:02:49;35.63;;;22.27;;
18661;SDS011;61528;49.456;11.098;2024-03-02T03:05:16;35.47;;;22.73;;
18661;SDS011;61528;49.456;11.098;2024-03-02T03:07:42;37.13;;;22.73;;
18661;SDS011;61528;49.456;11.098;2024-03-02T03:10:09;36.03;;;22.33;;
18661;SDS011;61528;49.456;11.098;2024-03-02T03:12:35;33.77;;;21.87;;
18661;SDS011;61528;49.456;11.098;2024-03-02T03:15:02;37.23;;;22.70;;
18661;SDS011;61528;49.456;11.098;2024-03-02T03:17:30;34.13;;;21.97;;
18661;SDS011;61528;49.456;11.098;2024-03-02T03:19:56;36.83;;;22.00;;
18661;SDS011;61528;49.456;11.098;2024-03-02T03:22:22;34.30;;;21.13;;
18661;SDS011;61528;49.456;11.098;2024-03-02T03:24:48;35.00;;;22.47;;
18661;SDS011;61528;49.456;11.098;2024-03-02T03:27:14;33.33;;;21.07;;
18661;SDS011;61528;49.456;11.098;2024-03-02T03:29:41;35.10;;;21.13;;
18661;SDS011;61528;49.456;11.098;2024-03-02T03:32:08;31.23;;;20.43;;
18661;SDS011;61528;49.456;11.098;2024-03-02T03:34:34;32.00;;;21.23;;
18661;SDS011;61528;49.456;11.098;2024-03-02T03:37:01;30.63;;;20.83;;
18661;SDS011;61528;49.456;11.098;2024-03-02T03:39:27;32.33;;;20.73;;
18661;SDS011;61528;49.456;11.098;2024-03-02T03:41:54;34.70;;;20.30;;
18661;SDS011;61528;49.456;11.098;2024-03-02T03:44:20;32.20;;;20.23;;
18661;SDS011;61528;49.456;11.098;2024-03-02T03:46:46;31.90;;;20.77;;
18661;SDS011;61528;49.456;11.098;2024-03-02T03:49:12;27.77;;;18.30;;
18661;SDS011;61528;49.456;11.098;2024-03-02T03:51:39;32.80;;;21.23;;
18661;SDS011;61528;49.456;11.098;2024-03-02T03:54:05;31.57;;;19.20;;
18661;SDS011;61528;49.456;11.098;2024-03-02T03:56:31;28.50;;;18.53;;
18661;SDS011;61528;49.456;11.098;2024-03-02T03:58:57;28.03;;;18.63;;
18661;SDS011;61528;49.456;11.098;2024-03-02T04:01:25;32.37;;;18.60;;
18661;SDS011;61528;49.456;11.098;2024-03-02T04:03:51;29.47;;;18.83;;
18661;SDS011;61528;49.456;11.098;2024-03-02T04:06:17;26.87;;;17.97;;
18661;SDS011;61528;49.456;11.098;2024-03-02T04:08:43;28.50;;;18.10;;
18661;SDS011;61528;49.456;11.098;2024-03-02T04:11:10;25.23;;;17.20;;
18661;SDS011;61528;49.456;11.098;2024-03-02T04:13:36;24.40;;;16.00;;
18661;SDS011;61528;49.456;11.098;2024-03-02T04:16:02;25.53;;;16.43;;
18661;SDS011;61528;49.456;11.098;2024-03-02T04:18:30;26.83;;;16.27;;
18661;SDS011;61528;49.456;11.098;2024-03-02T04:20:57;26.30;;;16.50;;
18661;SDS011;61528;49.456;11.098;2024-03-02T04:23:27;23.77;;;16.37;;
18661;SDS011;61528;49.456;11.098;2024-03-02T04:25:53;23.03;;;15.40;;
18661;SDS011;61528;49.456;11.098;2024-03-02T04:28:19;22.80;;;15.60;;
18661;SDS011;61528;49.456;11.098;2024-03-02T04:30:46;25.27;;;15.60;;
18661;SDS011;61528;49.456;11.098;2024-03-02T04:33:12;23.73;;;15.53;;
18661;SDS011;61528;49.456;11.098;2024-03-02T04:35:38;24.60;;;15.17;;
18661;SDS011;61528;49.456;11.098;2024-03-02T04:38:04;21.93;;;15.00;;
18661;SDS011;61528;49.456;11.098;2024-03-02T04:40:30;21.93;;;15.60;;
18661;SDS011;61528;49.456;11.098;2024-03-02T04:42:57;23.93;;;15.27;;
18661;SDS011;61528;49.456;11.098;2024-03-02T04:45:24;22.13;;;15.10;;
18661;SDS011;61528;49.456;11.098;2024-03-02T04:47:51;21.10;;;14.63;;
18661;SDS011;61528;49.456;11.098;2024-03-02T04:50:17;23.50;;;14.80;;
18661;SDS011;61528;49.456;11.098;2024-03-02T04:52:44;21.50;;;14.50;;
18661;SDS011;61528;49.456;11.098;2024-03-02T04:55:10;19.93;;;14.43;;
18661;SDS011;61528;49.456;11.098;2024-03-02T04:58:01;19.97;;;13.93;;
18661;SDS011;61528;49.456;11.098;2024-03-02T05:00:27;22.20;;;14.83;;
18661;SDS011;61528;49.456;11.098;2024-03-02T05:02:53;22.67;;;15.20;;
18661;SDS011;61528;49.456;11.098;2024-03-02T05:05:20;22.07;;;15.17;;
18661;SDS011;61528;49.456;11.098;2024-03-02T05:07:46;20.67;;;13.93;;
18661;SDS011;61528;49.456;11.098;2024-03-02T05:10:12;21.13;;;14.23;;
18661;SDS011;61528;49.456;11.098;2024-03-02T05:12:39;20.90;;;15.00;;
18661;SDS011;61528;49.456;11.098;2024-03-02T05:15:11;20.60;;;14.10;;
18661;SDS011;61528;49.456;11.098;2024-03-02T05:17:38;22.00;;;14.27;;
18661;SDS011;61528;49.456;11.098;2024-03-02T05:20:05;23.10;;;15.20;;
18661;SDS011;61528;49.456;11.098;2024-03-02T05:22:33;21.43;;;14.03;;
18661;SDS011;61528;49.456;11.098;2024-03-02T05:24:59;20.53;;;13.90;;
18661;SDS011;61528;49.456;11.098;2024-03-02T05:27:27;19.33;;;14.00;;
18661;SDS011;61528;49.456;11.098;2024-03-02T05:29:53;21.17;;;14.63;;
18661;SDS011;61528;49.456;11.098;2024-03-02T05:32:20;24.20;;;15.30;;
18661;SDS011;61528;49.456;11.098;2024-03-02T05:34:46;21.57;;;14.23;;
18661;SDS011;61528;49.456;11.098;2024-03-02T05:37:12;21.57;;;14.77;;
18661;SDS011;61528;49.456;11.098;2024-03-02T05:39:38;24.13;;;14.63;;
18661;SDS011;61528;49.456;11.098;2024-03-02T05:42:04;20.97;;;14.10;;
18661;SDS011;61528;49.456;11.098;2024-03-02T05:44:31;21.73;;;14.67;;
18661;SDS011;61528;49.456;11.098;2024-03-02T05:46:57;21.73;;;14.53;;
18661;SDS011;61528;49.456;11.098;2024-03-02T05:49:23;24.57;;;14.80;;
18661;SDS011;61528;49.456;11.098;2024-03-02T05:51:49;24.67;;;15.00;;
18661;SDS011;61528;49.456;11.098;2024-03-02T05:54:15;22.87;;;15.23;;
18661;SDS011;61528;49.456;11.098;2024-03-02T05:56:41;24.43;;;14.73;;
18661;SDS011;61528;49.456;11.098;2024-03-02T05:59:07;21.97;;;14.77;;
18661;SDS011;61528;49.456;11.098;2024-03-02T06:04:08;25.53;;;14.97;;
18661;SDS011;61528;49.456;11.098;2024-03-02T06:06:37;25.70;;;14.87;;
18661;SDS011;61528;49.456;11.098;2024-03-02T06:09:04;24.30;;;14.57;;
18661;SDS011;61528;49.456;11.098;2024-03-02T06:11:33;23.17;;;14.80;;
18661;SDS011;61528;49.456;11.098;2024-03-02T06:14:03;23.60;;;14.30;;
18661;SDS011;61528;49.456;11.098;2024-03-02T06:16:29;21.70;;;14.40;;
18661;SDS011;61528;49.456;11.098;2024-03-02T06:18:55;23.73;;;15.60;;
18661;SDS011;61528;49.456;11.098;2024-03-02T06:21:23;23.63;;;15.00;;
18661;SDS011;61528;49.456;11.098;2024-03-02T06:23:49;24.30;;;15.10;;
18661;SDS011;61528;49.456;11.098;2024-03-02T06:26:15;23.93;;;14.33;;
18661;SDS011;61528;49.456;11.098;2024-03-02T06:28:41;24.30;;;15.00;;
18661;SDS011;61528;49.456;11.098;2024-03-02T06:31:08;22.33;;;14.63;;
18661;SDS011;61528;49.456;11.098;2024-03-02T06:33:34;22.17;;;13.80;;
18661;SDS011;61528;49.456;11.098;2024-03-02T06:36:00;21.73;;;14.27;;
18661;SDS011;61528;49.456;11.098;2024-03-02T06:38:26;29.43;;;15.00;;
18661;SDS011;61528;49.456;11.098;2024-03-02T06:40:52;24.47;;;14.10;;
18661;SDS011;61528;49.456;11.098;2024-03-02T06:43:18;28.60;;;14.80;;
18661;SDS011;61528;49.456;11.098;2024-03-02T06:45:48;22.43;;;13.73;;
18661;SDS011;61528;49.456;11.098;2024-03-02T06:48:17;21.60;;;13.87;;
18661;SDS011;61528;49.456;11.098;2024-03-02T06:50:48;24.73;;;15.77;;
18661;SDS011;61528;49.456;11.098;2024-03-02T06:53:15;25.87;;;15.63;;
18661;SDS011;61528;49.456;11.098;2024-03-02T06:55:44;23.10;;;14.50;;
18661;SDS011;61528;49.456;11.098;2024-03-02T06:58:13;21.83;;;14.07;;
18661;SDS011;61528;49.456;11.098;2024-03-02T07:00:42;22.97;;;14.27;;
18661;SDS011;61528;49.456;11.098;2024-03-02T07:03:09;22.23;;;14.90;;
18661;SDS011;61528;49.456;11.098;2024-03-02T07:05:35;25.10;;;15.10;;
18661;SDS011;61528;49.456;11.098;2024-03-02T07:08:02;24.60;;;15.07;;
18661;SDS011;61528;49.456;11.098;2024-03-02T07:10:30;26.20;;;15.20;;
18661;SDS011;61528;49.456;11.098;2024-03-02T07:12:55;23.97;;;14.60;;
18661;SDS011;61528;49.456;11.098;2024-03-02T07:15:21;23.77;;;15.00;;
18661;SDS011;61528;49.456;11.098;2024-03-02T07:17:53;24.40;;;15.27;;
18661;SDS011;61528;49.456;11.098;2024-03-02T07:20:19;25.23;;;15.60;;
18661;SDS011;61528;49.456;11.098;2024-03-02T07:22:45;24.70;;;14.40;;
18661;SDS011;61528;49.456;11.098;2024-03-02T07:25:11;23.47;;;14.93;;
18661;SDS011;61528;49.456;11.098;2024-03-02T07:27:38;25.50;;;15.10;;
18661;SDS011;61528;49.456;11.098;2024-03-02T07:30:05;25.10;;;15.67;;
18661;SDS011;61528;49.456;11.098;2024-03-02T07:32:31;27.80;;;16.13;;
18661;SDS011;61528;49.456;11.098;2024-03-02T07:34:57;24.80;;;15.17;;
18661;SDS011;61528;49.456;11.098;2024-03-02T07:37:23;26.23;;;15.60;;
18661;SDS011;61528;49.456;11.098;2024-03-02T07:39:50;26.27;;;15.73;;
18661;SDS011;61528;49.456;11.098;2024-03-02T07:42:16;24.27;;;14.83;;
18661;SDS011;61528;49.456;11.098;2024-03-02T07:44:45;25.87;;;15.43;;
18661;SDS011;61528;49.456;11.098;2024-03-02T07:47:11;22.83;;;14.43;;
18661;SDS011;61528;49.456;11.098;2024-03-02T07:49:37;23.33;;;15.40;;
18661;SDS011;61528;49.456;11.098;2024-03-02T07:52:03;22.80;;;14.43;;
18661;SDS011;61528;49.456;11.098;2024-03-02T07:54:29;21.77;;;14.00;;
18661;SDS011;61528;49.456;11.098;2024-03-02T07:56:55;24.53;;;14.60;;
18661;SDS011;61528;49.456;11.098;2024-03-02T07:59:21;22.70;;;15.40;;
18661;SDS011;61528;49.456;11.098;2024-03-02T08:01:48;22.63;;;14.10;;
18661;SDS011;61528;49.456;11.098;2024-03-02T08:04:15;23.23;;;14.73;;
18661;SDS011;61528;49.456;11.098;2024-03-02T08:06:42;21.30;;;14.70;;
18661;SDS011;61528;49.456;11.098;2024-03-02T08:09:08;18.63;;;13.30;;
18661;SDS011;61528;49.456;11.098;2024-03-02T08:11:37;21.17;;;15.10;;
18661;SDS011;61528;49.456;11.098;2024-03-02T08:14:03;20.13;;;13.60;;
18661;SDS011;61528;49.456;11.098;2024-03-02T08:16:29;19.17;;;13.17;;
18661;SDS011;61528;49.456;11.098;2024-03-02T08:18:56;19.37;;;13.13;;
18661;SDS011;61528;49.456;11.098;2024-03-02T08:21:25;21.40;;;13.10;;
18661;SDS011;61528;49.456;11.098;2024-03-02T08:23:51;17.63;;;12.77;;
18661;SDS011;61528;49.456;11.098;2024-03-02T08:26:18;19.80;;;13.50;;
18661;SDS011;61528;49.456;11.098;2024-03-02T08:28:44;20.23;;;12.63;;
18661;SDS011;61528;49.456;11.098;2024-03-02T08:31:12;18.47;;;12.23;;
18661;SDS011;61528;49.456;11.098;2024-03-02T08:33:38;17.07;;;12.17;;
18661;SDS011;61528;49.456;11.098;2024-03-02T08:36:04;19.27;;;13.47;;
18661;SDS011;61528;49.456;11.098;2024-03-02T08:38:31;17.90;;;12.63;;
18661;SDS011;61528;49.456;11.098;2024-03-02T08:40:57;16.57;;;11.83;;
18661;SDS011;61528;49.456;11.098;2024-03-02T08:43:23;17.77;;;12.00;;
18661;SDS011;61528;49.456;11.098;2024-03-02T08:45:50;18.87;;;11.70;;
18661;SDS011;61528;49.456;11.098;2024-03-02T08:48:16;17.53;;;12.27;;
18661;SDS011;61528;49.456;11.098;2024-03-02T08:50:43;15.07;;;11.40;;
18661;SDS011;61528;49.456;11.098;2024-03-02T08:53:09;16.67;;;11.53;;
18661;SDS011;61528;49.456;11.098;2024-03-02T08:55:35;16.60;;;11.70;;
18661;SDS011;61528;49.456;11.098;2024-03-02T08:58:01;15.63;;;11.00;;
18661;SDS011;61528;49.456;11.098;2024-03-02T09:00:27;15.40;;;11.80;;
18661;SDS011;61528;49.456;11.098;2024-03-02T09:02:54;14.17;;;11.37;;
18661;SDS011;61528;49.456;11.098;2024-03-02T09:05:20;15.33;;;11.50;;
18661;SDS011;61528;49.456;11.098;2024-03-02T09:07:46;15.13;;;11.17;;
18661;SDS011;61528;49.456;11.098;2024-03-02T09:10:12;13.50;;;10.53;;
18661;SDS011;61528;49.456;11.098;2024-03-02T09:12:38;13.10;;;10.30;;
18661;SDS011;61528;49.456;11.098;2024-03-02T09:15:05;15.37;;;10.47;;
18661;SDS011;61528;49.456;11.098;2024-03-02T09:17:31;13.37;;;10.47;;
18661;SDS011;61528;49.456;11.098;2024-03-02T09:19:57;13.27;;;9.80;;
18661;SDS011;61528;49.456;11.098;2024-03-02T09:22:24;13.30;;;10.10;;
18661;SDS011;61528;49.456;11.098;2024-03-02T09:24:50;11.70;;;9.77;;
18661;SDS011;61528;49.456;11.098;2024-03-02T09:27:16;13.13;;;9.90;;
18661;SDS011;61528;49.456;11.098;2024-03-02T09:29:42;11.73;;;9.23;;
18661;SDS011;61528;49.456;11.098;2024-03-02T09:32:11;13.90;;;9.60;;
18661;SDS011;61528;49.456;11.098;2024-03-02T09:34:39;11.60;;;9.57;;
18661;SDS011;61528;49.456;11.098;2024-03-02T09:37:05;11.53;;;8.97;;
18661;SDS011;61528;49.456;11.098;2024-03-02T09:39:31;12.60;;;9.70;;
18661;SDS011;61528;49.456;11.098;2024-03-02T09:41:58;10.63;;;8.83;;
18661;SDS011;61528;49.456;11.098;2024-03-02T09:44:25;11.87;;;9.30;;
18661;SDS011;61528;49.456;11.098;2024-03-02T09:46:52;10.80;;;8.83;;
18661;SDS011;61528;49.456;11.098;2024-03-02T09:49:18;10.17;;;8.97;;
18661;SDS011;61528;49.456;11.098;2024-03-02T09:51:46;11.40;;;9.17;;
18661;SDS011;61528;49.456;11.098;2024-03-02T09:54:13;10.10;;;8.60;;
18661;SDS011;61528;49.456;11.098;2024-03-02T09:56:39;10.50;;;9.10;;
18661;SDS011;61528;49.456;11.098;2024-03-02T09:59:05;9.63;;;8.40;;
18661;SDS011;61528;49.456;11.098;2024-03-02T10:01:32;11.33;;;8.67;;
18661;SDS011;61528;49.456;11.098;2024-03-02T10:03:59;10.23;;;8.03;;
18661;SDS011;61528;49.456;11.098;2024-03-02T10:06:25;10.27;;;8.07;;
18661;SDS011;61528;49.456;11.098;2024-03-02T10:08:52;10.30;;;8.43;;
18661;SDS011;61528;49.456;11.098;2024-03-02T10:11:34;10.37;;;8.10;;
18661;SDS011;61528;49.456;11.098;2024-03-02T10:14:12;10.73;;;8.40;;
18661;SDS011;61528;49.456;11.098;2024-03-02T10:16:39;10.83;;;8.50;;
18661;SDS011;61528;49.456;11.098;2024-03-02T10:19:15;10.83;;;9.20;;
18661;SDS011;61528;49.456;11.098;2024-03-02T10:21:43;10.63;;;8.90;;
18661;SDS011;61528;49.456;11.098;2024-03-02T10:24:09;10.80;;;9.23;;
18661;SDS011;61528;49.456;11.098;2024-03-02T10:26:35;11.70;;;9.60;;
18661;SDS011;61528;49.456;11.098;2024-03-02T10:29:02;11.47;;;9.70;;
18661;SDS011;61528;49.456;11.098;2024-03-02T10:31:29;10.80;;;9.63;;
18661;SDS011;61528;49.456;11.098;2024-03-02T10:33:55;11.90;;;9.77;;
18661;SDS011;61528;49.456;11.098;2024-03-02T10:36:21;13.77;;;11.13;;
18661;SDS011;61528;49.456;11.098;2024-03-02T10:38:47;12.03;;;9.83;;
18661;SDS011;61528;49.456;11.098;2024-03-02T10:41:18;13.73;;;10.53;;
18661;SDS011;61528;49.456;11.098;2024-03-02T10:43:44;14.77;;;11.30;;
18661;SDS011;61528;49.456;11.098;2024-03-02T10:46:10;13.13;;;10.87;;
18661;SDS011;61528;49.456;11.098;2024-03-02T10:48:38;13.27;;;10.90;;
18661;SDS011;61528;49.456;11.098;2024-03-02T10:51:05;12.73;;;10.77;;
18661;SDS011;61528;49.456;11.098;2024-03-02T10:53:32;12.73;;;10.23;;
18661;SDS011;61528;49.456;11.098;2024-03-02T10:55:58;13.70;;;11.43;;
18661;SDS011;61528;49.456;11.098;2024-03-02T10:58:30;13.37;;;11.63;;
18661;SDS011;61528;49.456;11.098;2024-03-02T11:00:58;14.83;;;11.83;;
18661;SDS011;61528;49.456;11.098;2024-03-02T11:03:26;15.00;;;12.30;;
18661;SDS011;61528;49.456;11.098;2024-03-02T11:05:53;15.20;;;12.43;;
18661;SDS011;61528;49.456;11.098;2024-03-02T11:08:20;14.43;;;12.03;;
18661;SDS011;61528;49.456;11.098;2024-03-02T11:10:51;13.20;;;11.77;;
18661;SDS011;61528;49.456;11.098;2024-03-02T11:13:22;13.43;;;12.03;;
18661;SDS011;61528;49.456;11.098;2024-03-02T11:15:49;14.67;;;12.27;;
18661;SDS011;61528;49.456;11.098;2024-03-02T11:18:18;12.80;;;11.40;;
18661;SDS011;61528;49.456;11.098;2024-03-02T11:20:44;13.50;;;11.60;;
18661;SDS011;61528;49.456;11.098;2024-03-02T11:23:11;11.43;;;10.23;;
18661;SDS011;61528;49.456;11.098;2024-03-02T11:25:37;12.63;;;11.33;;
18661;SDS011;61528;49.456;11.098;2024-03-02T11:28:05;12.63;;;10.67;;
18661;SDS011;61528;49.456;11.098;2024-03-02T11:33:06;11.73;;;10.17;;
18661;SDS011;61528;49.456;11.098;2024-03-02T11:35:36;11.87;;;9.07;;
18661;SDS011;61528;49.456;11.098;2024-03-02T11:38:03;9.93;;;8.93;;
18661;SDS011;61528;49.456;11.098;2024-03-02T11:40:30;10.70;;;9.10;;
18661;SDS011;61528;49.456;11.098;2024-03-02T11:42:56;9.80;;;8.63;;
18661;SDS011;61528;49.456;11.098;2024-03-02T11:45:23;10.23;;;8.30;;
18661;SDS011;61528;49.456;11.098;2024-03-02T11:47:50;12.40;;;10.03;;
18661;SDS011;61528;49.456;11.098;2024-03-02T11:50:40;10.30;;;8.90;;
18661;SDS011;61528;49.456;11.098;2024-03-02T11:53:03;10.83;;;9.10;;
18661;SDS011;61528;49.456;11.098;2024-03-02T11:55:31;12.37;;;9.80;;
18661;SDS011;61528;49.456;11.098;2024-03-02T11:58:04;12.33;;;10.63;;
18661;SDS011;61528;49.456;11.098;2024-03-02T12:00:30;14.23;;;10.20;;
18661;SDS011;61528;49.456;11.098;2024-03-02T12:03:00;13.77;;;10.87;;
18661;SDS011;61528;49.456;11.098;2024-03-02T12:05:27;14.20;;;11.03;;
18661;SDS011;61528;49.456;11.098;2024-03-02T12:07:57;13.20;;;11.13;;
18661;SDS011;61528;49.456;11.098;2024-03-02T12:10:23;15.47;;;11.47;;
18661;SDS011;61528;49.456;11.098;2024-03-02T12:12:59;14.30;;;11.27;;
18661;SDS011;61528;49.456;11.098;2024-03-02T12:15:25;15.83;;;11.53;;
18661;SDS011;61528;49.456;11.098;2024-03-02T12:18:01;17.37;;;12.17;;
18661;SDS011;61528;49.456;11.098;2024-03-02T12:20:28;15.37;;;12.13;;
18661;SDS011;61528;49.456;11.098;2024-03-02T12:22:55;16.80;;;13.00;;
18661;SDS011;61528;49.456;11.098;2024-03-02T12:25:22;15.10;;;11.33;;
18661;SDS011;61528;49.456;11.098;2024-03-02T12:27:50;15.33;;;12.93;;
18661;SDS011;61528;49.456;11.098;2024-03-02T12:30:17;16.63;;;13.00;;
18661;SDS011;61528;49.456;11.098;2024-03-02T12:32:46;17.10;;;13.67;;
18661;SDS011;61528;49.456;11.098;2024-03-02T12:35:13;18.30;;;14.80;;
18661;SDS011;61528;49.456;11.098;2024-03-02T12:37:45;19.33;;;14.00;;
18661;SDS011;61528;49.456;11.098;2024-03-02T12:40:12;18.27;;;13.93;;
18661;SDS011;61528;49.456;11.098;2024-03-02T12:42:39;18.13;;;14.97;;
18661;SDS011;61528;49.456;11.098;2024-03-02T12:45:06;19.03;;;15.17;;
18661;SDS011;61528;49.456;11.098;2024-03-02T12:47:36;17.33;;;14.27;;
18661;SDS011;61528;49.456;11.098;2024-03-02T12:50:02;16.93;;;14.30;;
18661;SDS011;61528;49.456;11.098;2024-03-02T12:52:29;16.63;;;13.50;;
18661;SDS011;61528;49.456;11.098;2024-03-02T12:54:58;15.83;;;13.00;;
18661;SDS011;61528;49.456;11.098;2024-03-02T12:57:25;17.03;;;13.97;;
18661;SDS011;61528;49.456;11.098;2024-03-02T13:00:04;14.20;;;12.37;;
18661;SDS011;61528;49.456;11.098;2024-03-02T13:02:35;15.53;;;11.87;;
18661;SDS011;61528;49.456;11.098;2024-03-02T13:05:03;14.77;;;12.33;;
18661;SDS011;61528;49.456;11.098;2024-03-02T13:07:29;14.00;;;11.20;;
18661;SDS011;61528;49.456;11.098;2024-03-02T13:09:56;12.23;;;11.03;;
18661;SDS011;61528;49.456;11.098;2024-03-02T13:12:23;13.43;;;11.23;;
18661;SDS011;61528;49.456;11.098;2024-03-02T13:14:52;11.37;;;9.80;;
18661;SDS011;61528;49.456;11.098;2024-03-02T13:17:20;11.93;;;10.60;;
18661;SDS011;61528;49.456;11.098;2024-03-02T13:19:54;12.33;;;9.80;;
18661;SDS011;61528;49.456;11.098;2024-03-02T13:22:21;11.60;;;10.40;;
18661;SDS011;61528;49.456;11.098;2024-03-02T13:24:48;10.87;;;9.63;;
18661;SDS011;61528;49.456;11.098;2024-03-02T13:27:15;10.80;;;9.70;;
18661;SDS011;61528;49.456;11.098;2024-03-02T13:29:44;12.17;;;9.70;;
18661;SDS011;61528;49.456;11.098;2024-03-02T13:32:10;9.50;;;8.60;;
18661;SDS011;61528;49.456;11.098;2024-03-02T13:34:36;11.48;;;9.77;;
18661;SDS011;61528;49.456;11.098;2024-03-02T13:37:03;11.25;;;10.15;;
18661;SDS011;61528;49.456;11.098;2024-03-02T13:39:31;11.43;;;10.23;;
18661;SDS011;61528;49.456;11.098;2024-03-02T13:41:58;11.15;;;10.10;;
18661;SDS011;61528;49.456;11.098;2024-03-02T13:44:31;11.80;;;10.68;;
18661;SDS011;61528;49.456;11.098;2024-03-02T13:46:59;11.65;;;10.65;;
18661;SDS011;61528;49.456;11.098;2024-03-02T13:49:25;11.68;;;10.45;;
18661;SDS011;61528;49.456;11.098;2024-03-02T13:52:05;11.57;;;10.40;;
18661;SDS011;61528;49.456;11.098;2024-03-02T13:54:44;10.73;;;9.73;;
18661;SDS011;61528;49.456;11.098;2024-03-02T13:57:11;10.75;;;9.68;;
18661;SDS011;61528;49.456;11.098;2024-03-02T13:59:37;10.57;;;9.48;;
18661;SDS011;61528;49.456;11.098;2024-03-02T14:02:06;10.73;;;9.63;;
18661;SDS011;61528;49.456;11.098;2024-03-02T14:04:34;10.52;;;9.15;;
18661;SDS011;61528;49.456;11.098;2024-03-02T14:07:00;10.67;;;9.47;;
18661;SDS011;61528;49.456;11.098;2024-03-02T14:09:26;10.43;;;9.30;;
18661;SDS011;61528;49.456;11.098;2024-03-02T14:11:53;9.87;;;8.87;;
18661;SDS011;61528;49.456;11.098;2024-03-02T14:14:20;12.03;;;10.13;;
18661;SDS011;61528;49.456;11.098;2024-03-02T14:16:47;10.80;;;9.70;;
18661;SDS011;61528;49.456;11.098;2024-03-02T14:19:13;10.60;;;9.50;;
18661;SDS011;61528;49.456;11.098;2024-03-02T14:21:41;13.83;;;10.67;;
18661;SDS011;61528;49.456;11.098;2024-03-02T14:24:08;13.97;;;11.07;;
18661;SDS011;61528;49.456;11.098;2024-03-02T14:26:35;12.50;;;10.70;;